sensor_id;sensor_type;location;lat;lon;timestamp;pressure;altitude;pressure_sealevel;temperature;humidity
13209;BME280;6669;42.678;23.332;2024-03-23T00:54:24;94583.88;;;4.62;100.00
13209;BME280;6669;42.678;23.332;2024-03-23T00:56:50;94594.16;;;4.62;100.00
13209;BME280;6669;42.678;23.332;2024-03-23T00:59:18;94588.88;;;4.63;100.00
13209;BME280;6669;42.678;23.332;2024-03-23T01:01:44;94575.06;;;4.54;100.00
13209;BME280;6669;42.678;23.332;2024-03-23T01:04:11;94588.75;;;4.65;100.00
13209;BME280;6669;42.678;23.332;2024-03-23T01:06:38;94585.88;;;4.58;100.00
13209;BME280;6669;42.678;23.332;2024-03-23T01:09:05;94584.94;;;4.49;100.00
13209;BME280;6669;42.678;23.332;2024-03-23T01:11:33;94588.59;;;4.47;100.00
13209;BME280;6669;42.678;23.332;2024-03-23T01:14:00;94578.44;;;4.55;100.00
13209;BME280;6669;42.678;23.332;2024-03-23T01:16:26;94578.44;;;4.55;100.00
13209;BME280;6669;42.678;23.332;2024-03-23T01:18:54;94574.53;;;4.51;100.00
13209;BME280;6669;42.678;23.332;2024-03-23T01:21:20;94575.88;;;4.45;100.00
13209;BME280;6669;42.678;23.332;2024-03-23T01:23:47;94580.47;;;4.41;100.00
13209;BME280;6669;42.678;23.332;2024-03-23T01:26:13;94576.28;;;4.40;100.00
13209;BME280;6669;42.678;23.332;2024-03-23T01:28:42;94581.16;;;4.34;100.00
13209;BME280;6669;42.678;23.332;2024-03-23T01:31:08;94584.28;;;4.37;100.00
13209;BME280;6669;42.678;23.332;2024-03-23T01:33:35;94580.50;;;4.32;100.00
13209;BME280;6669;42.678;23.332;2024-03-23T01:36:02;94584.00;;;4.31;100.00
13209;BME280;6669;42.678;23.332;2024-03-23T01:38:29;94578.72;;;4.32;100.00
13209;BME280;6669;42.678;23.332;2024-03-23T01:40:57;94582.50;;;4.28;100.00
13209;BME280;6669;42.678;23.332;2024-03-23T01:43:24;94584.00;;;4.31;100.00
13209;BME280;6669;42.678;23.332;2024-03-23T01:45:52;94580.06;;;4.27;100.00
13209;BME280;6669;42.678;23.332;2024-03-23T01:48:20;94578.28;;;4.17;100.00
13209;BME280;6669;42.678;23.332;2024-03-23T01:50:46;94576.94;;;4.13;100.00
13209;BME280;6669;42.678;23.332;2024-03-23T01:53:14;94573.94;;;4.08;100.00
13209;BME280;6669;42.678;23.332;2024-03-23T01:55:43;94580.44;;;4.02;100.00
13209;BME280;6669;42.678;23.332;2024-03-23T01:58:10;94578.97;;;4.00;100.00
13209;BME280;6669;42.678;23.332;2024-03-23T02:00:36;94579.47;;;3.93;100.00
13209;BME280;6669;42.678;23.332;2024-03-23T02:03:21;94575.41;;;3.91;100.00
13209;BME280;6669;42.678;23.332;2024-03-23T02:05:48;94581.22;;;3.83;100.00
13209;BME280;6669;42.678;23.332;2024-03-23T02:08:17;94573.75;;;3.80;100.00
13209;BME280;6669;42.678;23.332;2024-03-23T02:10:44;94589.59;;;3.75;100.00
13209;BME280;6669;42.678;23.332;2024-03-23T02:13:11;94576.84;;;3.74;100.00
13209;BME280;6669;42.678;23.332;2024-03-23T02:15:39;94584.00;;;3.70;100.00
13209;BME280;6669;42.678;23.332;2024-03-23T02:18:08;94591.19;;;3.67;100.00
13209;BME280;6669;42.678;23.332;2024-03-23T02:20:34;94587.50;;;3.59;100.00
13209;BME280;6669;42.678;23.332;2024-03-23T02:23:03;94588.31;;;3.60;100.00
13209;BME280;6669;42.678;23.332;2024-03-23T02:25:31;94592.38;;;3.63;100.00
13209;BME280;6669;42.678;23.332;2024-03-23T02:27:59;94584.22;;;3.57;100.00
13209;BME280;6669;42.678;23.332;2024-03-23T02:30:25;94591.28;;;3.65;100.00
13209;BME280;6669;42.678;23.332;2024-03-23T02:32:53;94594.28;;;3.60;100.00
13209;BME280;6669;42.678;23.332;2024-03-23T02:35:19;94595.06;;;3.61;100.00
13209;BME280;6669;42.678;23.332;2024-03-23T02:37:46;94592.47;;;3.51;100.00
13209;BME280;6669;42.678;23.332;2024-03-23T02:40:14;94593.53;;;3.49;100.00
13209;BME280;6669;42.678;23.332;2024-03-23T02:42:41;94590.84;;;3.50;100.00
13209;BME280;6669;42.678;23.332;2024-03-23T02:45:07;94589.75;;;3.43;100.00
13209;BME280;6669;42.678;23.332;2024-03-23T02:47:34;94590.13;;;3.38;100.00
13209;BME280;6669;42.678;23.332;2024-03-23T02:50:01;94584.31;;;3.36;100.00
13209;BME280;6669;42.678;23.332;2024-03-23T02:52:28;94582.53;;;3.37;100.00
13209;BME280;6669;42.678;23.332;2024-03-23T02:54:54;94578.34;;;3.36;100.00
13209;BME280;6669;42.678;23.332;2024-03-23T02:57:23;94578.41;;;3.24;100.00
13209;BME280;6669;42.678;23.332;2024-03-23T02:59:49;94579.38;;;3.23;100.00
13209;BME280;6669;42.678;23.332;2024-03-23T03:02:16;94585.88;;;3.27;100.00
13209;BME280;6669;42.678;23.332;2024-03-23T03:04:42;94570.97;;;3.21;100.00
13209;BME280;6669;42.678;23.332;2024-03-23T03:07:10;94576.50;;;3.17;100.00
13209;BME280;6669;42.678;23.332;2024-03-23T03:09:36;94580.81;;;3.16;100.00
13209;BME280;6669;42.678;23.332;2024-03-23T03:12:05;94576.25;;;3.20;100.00
13209;BME280;6669;42.678;23.332;2024-03-23T03:14:32;94577.13;;;3.09;100.00
13209;BME280;6669;42.678;23.332;2024-03-23T03:17:00;94587.66;;;3.06;100.00
13209;BME280;6669;42.678;23.332;2024-03-23T03:19:26;94585.47;;;3.01;100.00
13209;BME280;6669;42.678;23.332;2024-03-23T03:21:54;94585.47;;;3.01;100.00
13209;BME280;6669;42.678;23.332;2024-03-23T03:24:20;94585.47;;;3.01;100.00
13209;BME280;6669;42.678;23.332;2024-03-23T03:26:47;94588.31;;;2.98;100.00
13209;BME280;6669;42.678;23.332;2024-03-23T03:29:13;94591.38;;;2.92;100.00
13209;BME280;6669;42.678;23.332;2024-03-23T03:31:42;94590.53;;;2.91;100.00
13209;BME280;6669;42.678;23.332;2024-03-23T03:34:08;94588.38;;;2.87;100.00
13209;BME280;6669;42.678;23.332;2024-03-23T03:36:35;94584.28;;;2.84;100.00
13209;BME280;6669;42.678;23.332;2024-03-23T03:39:01;94581.88;;;2.83;100.00
13209;BME280;6669;42.678;23.332;2024-03-23T03:41:31;94580.84;;;2.74;100.00
13209;BME280;6669;42.678;23.332;2024-03-23T03:43:58;94583.91;;;2.68;100.00
13209;BME280;6669;42.678;23.332;2024-03-23T03:46:27;94586.28;;;2.59;100.00
13209;BME280;6669;42.678;23.332;2024-03-23T03:48:55;94587.09;;;2.60;100.00
13209;BME280;6669;42.678;23.332;2024-03-23T03:51:22;94587.25;;;2.58;100.00
13209;BME280;6669;42.678;23.332;2024-03-23T03:53:48;94595.72;;;2.59;100.00
13209;BME280;6669;42.678;23.332;2024-03-23T03:56:16;94595.28;;;2.54;100.00
13209;BME280;6669;42.678;23.332;2024-03-23T03:58:42;94593.47;;;2.44;100.00
13209;BME280;6669;42.678;23.332;2024-03-23T04:01:09;94587.31;;;2.36;100.00
13209;BME280;6669;42.678;23.332;2024-03-23T04:03:36;94592.56;;;2.34;100.00
13209;BME280;6669;42.678;23.332;2024-03-23T04:06:06;94596.06;;;2.33;100.00
13209;BME280;6669;42.678;23.332;2024-03-23T04:08:32;94592.81;;;2.31;100.00
13209;BME280;6669;42.678;23.332;2024-03-23T04:11:00;94594.22;;;2.24;100.00
13209;BME280;6669;42.678;23.332;2024-03-23T04:13:26;94599.28;;;2.14;100.00
13209;BME280;6669;42.678;23.332;2024-03-23T04:15:54;94599.59;;;2.21;100.00
13209;BME280;6669;42.678;23.332;2024-03-23T04:18:20;94597.53;;;2.15;100.00
13209;BME280;6669;42.678;23.332;2024-03-23T04:20:48;94602.75;;;2.24;100.00
13209;BME280;6669;42.678;23.332;2024-03-23T04:23:16;94603.69;;;2.23;100.00
13209;BME280;6669;42.678;23.332;2024-03-23T04:25:43;94601.59;;;2.17;100.00
13209;BME280;6669;42.678;23.332;2024-03-23T04:28:09;94602.44;;;2.18;100.00
13209;BME280;6669;42.678;23.332;2024-03-23T04:30:37;94605.53;;;2.21;100.00
13209;BME280;6669;42.678;23.332;2024-03-23T04:33:03;94612.56;;;2.19;100.00
13209;BME280;6669;42.678;23.332;2024-03-23T04:35:30;94599.59;;;2.21;100.00
13209;BME280;6669;42.678;23.332;2024-03-23T04:37:57;94609.75;;;2.22;100.00
13209;BME280;6669;42.678;23.332;2024-03-23T04:40:26;94611.94;;;2.27;100.00
13209;BME280;6669;42.678;23.332;2024-03-23T04:42:53;94606.94;;;2.25;100.00
13209;BME280;6669;42.678;23.332;2024-03-23T04:45:20;94611.94;;;2.27;100.00
13209;BME280;6669;42.678;23.332;2024-03-23T04:47:47;94614.84;;;2.34;100.00
13209;BME280;6669;42.678;23.332;2024-03-23T04:50:15;94617.41;;;2.34;100.00
13209;BME280;6669;42.678;23.332;2024-03-23T04:52:42;94617.53;;;2.32;100.00
13209;BME280;6669;42.678;23.332;2024-03-23T04:55:09;94609.72;;;2.34;100.00
13209;BME280;6669;42.678;23.332;2024-03-23T04:57:39;94621.34;;;2.38;100.00
13209;BME280;6669;42.678;23.332;2024-03-23T05:00:06;94622.75;;;2.42;100.00
13209;BME280;6669;42.678;23.332;2024-03-23T05:02:43;94622.38;;;2.47;100.00
13209;BME280;6669;42.678;23.332;2024-03-23T05:05:11;94616.91;;;2.40;100.00
13209;BME280;6669;42.678;23.332;2024-03-23T05:07:38;94620.72;;;2.45;100.00
13209;BME280;6669;42.678;23.332;2024-03-23T05:10:05;94607.09;;;2.45;100.00
13209;BME280;6669;42.678;23.332;2024-03-23T05:12:36;94617.31;;;2.56;100.00
13209;BME280;6669;42.678;23.332;2024-03-23T05:15:05;94618.13;;;2.57;100.00
13209;BME280;6669;42.678;23.332;2024-03-23T05:17:32;94610.13;;;2.50;100.00
13209;BME280;6669;42.678;23.332;2024-03-23T05:19:59;94623.69;;;2.62;100.00
13209;BME280;6669;42.678;23.332;2024-03-23T05:22:25;94615.91;;;2.64;100.00
13209;BME280;6669;42.678;23.332;2024-03-23T05:24:53;94611.66;;;2.74;100.00
13209;BME280;6669;42.678;23.332;2024-03-23T05:27:19;94601.81;;;2.79;100.00
13209;BME280;6669;42.678;23.332;2024-03-23T05:29:46;94606.69;;;2.82;100.00
13209;BME280;6669;42.678;23.332;2024-03-23T05:32:14;94606.50;;;2.95;100.00
13209;BME280;6669;42.678;23.332;2024-03-23T05:34:41;94599.25;;;3.00;100.00
13209;BME280;6669;42.678;23.332;2024-03-23T05:37:07;94607.81;;;3.10;100.00
13209;BME280;6669;42.678;23.332;2024-03-23T05:39:35;94614.28;;;3.26;100.00
13209;BME280;6669;42.678;23.332;2024-03-23T05:42:01;94606.34;;;3.39;100.00
13209;BME280;6669;42.678;23.332;2024-03-23T05:44:28;94609.66;;;3.51;100.00
13209;BME280;6669;42.678;23.332;2024-03-23T05:46:54;94603.31;;;3.55;100.00
13209;BME280;6669;42.678;23.332;2024-03-23T05:49:23;94604.69;;;3.59;100.00
13209;BME280;6669;42.678;23.332;2024-03-23T05:51:50;94612.84;;;3.74;100.00
13209;BME280;6669;42.678;23.332;2024-03-23T05:54:18;94607.47;;;3.77;100.00
13209;BME280;6669;42.678;23.332;2024-03-23T05:56:44;94613.00;;;3.82;100.00
13209;BME280;6669;42.678;23.332;2024-03-23T05:59:11;94613.56;;;3.86;100.00
13209;BME280;6669;42.678;23.332;2024-03-23T06:01:37;94611.00;;;3.86;100.00
13209;BME280;6669;42.678;23.332;2024-03-23T06:04:04;94612.09;;;3.83;100.00
13209;BME280;6669;42.678;23.332;2024-03-23T06:06:32;94603.81;;;3.89;100.00
13209;BME280;6669;42.678;23.332;2024-03-23T06:08:59;94600.34;;;4.00;100.00
13209;BME280;6669;42.678;23.332;2024-03-23T06:11:25;94598.69;;;3.99;100.00
13209;BME280;6669;42.678;23.332;2024-03-23T06:13:53;94600.06;;;4.03;100.00
13209;BME280;6669;42.678;23.332;2024-03-23T06:16:19;94602.09;;;4.09;100.00
13209;BME280;6669;42.678;23.332;2024-03-23T06:18:49;94598.47;;;4.22;100.00
13209;BME280;6669;42.678;23.332;2024-03-23T06:21:15;94598.75;;;4.29;100.00
13209;BME280;6669;42.678;23.332;2024-03-23T06:23:44;94595.66;;;4.35;100.00
13209;BME280;6669;42.678;23.332;2024-03-23T06:26:16;94605.53;;;4.49;100.00
13209;BME280;6669;42.678;23.332;2024-03-23T06:28:43;94599.19;;;4.53;100.00
13209;BME280;6669;42.678;23.332;2024-03-23T06:31:10;94594.31;;;4.70;100.00
13209;BME280;6669;42.678;23.332;2024-03-23T06:33:37;94595.50;;;4.85;100.00
13209;BME280;6669;42.678;23.332;2024-03-23T06:36:04;94597.53;;;4.91;100.00
13209;BME280;6669;42.678;23.332;2024-03-23T06:38:32;94598.34;;;5.02;100.00
13209;BME280;6669;42.678;23.332;2024-03-23T06:41:00;94591.56;;;5.01;100.00
13209;BME280;6669;42.678;23.332;2024-03-23T06:43:29;94606.56;;;5.25;100.00
13209;BME280;6669;42.678;23.332;2024-03-23T06:45:56;94566.16;;;5.16;100.00
13209;BME280;6669;42.678;23.332;2024-03-23T06:48:24;94594.28;;;5.47;100.00
13209;BME280;6669;42.678;23.332;2024-03-23T06:50:55;94606.44;;;5.64;100.00
13209;BME280;6669;42.678;23.332;2024-03-23T06:53:23;94601.13;;;5.66;100.00
13209;BME280;6669;42.678;23.332;2024-03-23T06:55:50;94588.47;;;5.72;100.00
13209;BME280;6669;42.678;23.332;2024-03-23T06:58:20;94599.13;;;5.87;100.00
13209;BME280;6669;42.678;23.332;2024-03-23T07:00:47;94598.03;;;5.90;100.00
13209;BME280;6669;42.678;23.332;2024-03-23T07:03:15;94592.34;;;5.86;100.00
13209;BME280;6669;42.678;23.332;2024-03-23T07:05:41;94585.97;;;5.91;100.00
13209;BME280;6669;42.678;23.332;2024-03-23T07:08:08;94592.56;;;6.03;100.00
13209;BME280;6669;42.678;23.332;2024-03-23T07:10:34;94587.66;;;6.10;100.00
13209;BME280;6669;42.678;23.332;2024-03-23T07:13:02;94586.25;;;6.15;100.00
13209;BME280;6669;42.678;23.332;2024-03-23T07:15:30;94589.78;;;6.14;100.00
13209;BME280;6669;42.678;23.332;2024-03-23T07:17:57;94580.88;;;6.27;100.00
13209;BME280;6669;42.678;23.332;2024-03-23T07:20:23;94581.69;;;6.45;100.00
13209;BME280;6669;42.678;23.332;2024-03-23T07:22:51;94581.19;;;6.60;100.00
13209;BME280;6669;42.678;23.332;2024-03-23T07:25:17;94567.09;;;6.72;100.00
13209;BME280;6669;42.678;23.332;2024-03-23T07:27:45;94581.38;;;6.66;100.00
13209;BME280;6669;42.678;23.332;2024-03-23T07:30:11;94569.41;;;6.83;100.00
13209;BME280;6669;42.678;23.332;2024-03-23T07:32:40;94561.91;;;6.72;100.00
13209;BME280;6669;42.678;23.332;2024-03-23T07:35:07;94559.97;;;6.74;100.00
13209;BME280;6669;42.678;23.332;2024-03-23T07:37:34;94565.94;;;6.93;100.00
13209;BME280;6669;42.678;23.332;2024-03-23T07:40:01;94558.75;;;7.04;100.00
13209;BME280;6669;42.678;23.332;2024-03-23T07:42:29;94560.63;;;7.20;100.00
13209;BME280;6669;42.678;23.332;2024-03-23T07:44:55;94562.66;;;7.35;100.00
13209;BME280;6669;42.678;23.332;2024-03-23T07:47:23;94559.75;;;7.38;100.00
13209;BME280;6669;42.678;23.332;2024-03-23T07:49:50;94555.41;;;7.47;100.00
13209;BME280;6669;42.678;23.332;2024-03-23T07:52:18;94553.19;;;7.52;100.00
13209;BME280;6669;42.678;23.332;2024-03-23T07:54:45;94550.25;;;7.47;100.00
13209;BME280;6669;42.678;23.332;2024-03-23T07:57:13;94552.28;;;7.61;100.00
13209;BME280;6669;42.678;23.332;2024-03-23T07:59:39;94551.50;;;7.77;100.00
13209;BME280;6669;42.678;23.332;2024-03-23T08:02:06;94548.81;;;7.95;100.00
13209;BME280;6669;42.678;23.332;2024-03-23T08:04:32;94552.91;;;8.06;100.00
13209;BME280;6669;42.678;23.332;2024-03-23T08:07:01;94549.81;;;8.02;100.00
13209;BME280;6669;42.678;23.332;2024-03-23T08:09:27;94560.72;;;8.23;100.00
13209;BME280;6669;42.678;23.332;2024-03-23T08:11:54;94542.91;;;8.36;100.00
13209;BME280;6669;42.678;23.332;2024-03-23T08:14:21;94553.50;;;8.51;100.00
13209;BME280;6669;42.678;23.332;2024-03-23T08:16:48;94549.91;;;8.60;100.00
13209;BME280;6669;42.678;23.332;2024-03-23T08:19:16;94548.78;;;8.79;100.00
13209;BME280;6669;42.678;23.332;2024-03-23T08:21:44;94539.41;;;8.95;100.00
13209;BME280;6669;42.678;23.332;2024-03-23T08:24:12;94538.38;;;9.12;100.00
13209;BME280;6669;42.678;23.332;2024-03-23T08:26:39;94534.34;;;9.18;100.00
13209;BME280;6669;42.678;23.332;2024-03-23T08:29:05;94534.47;;;9.25;100.00
13209;BME280;6669;42.678;23.332;2024-03-23T08:31:33;94533.47;;;9.34;100.00
13209;BME280;6669;42.678;23.332;2024-03-23T08:33:59;94536.25;;;9.32;100.00
13209;BME280;6669;42.678;23.332;2024-03-23T08:36:27;94533.66;;;9.32;100.00
13209;BME280;6669;42.678;23.332;2024-03-23T08:38:54;94519.84;;;9.48;100.00
13209;BME280;6669;42.678;23.332;2024-03-23T08:41:22;94524.13;;;9.73;99.84
13209;BME280;6669;42.678;23.332;2024-03-23T08:43:49;94517.13;;;9.73;99.40
13209;BME280;6669;42.678;23.332;2024-03-23T08:46:16;94516.72;;;9.93;99.27
13209;BME280;6669;42.678;23.332;2024-03-23T08:48:44;94507.94;;;9.94;94.55
13209;BME280;6669;42.678;23.332;2024-03-23T08:51:12;94518.88;;;10.12;94.92
13209;BME280;6669;42.678;23.332;2024-03-23T08:53:39;94511.16;;;10.27;92.53
13209;BME280;6669;42.678;23.332;2024-03-23T08:56:08;94500.31;;;10.47;95.35
13209;BME280;6669;42.678;23.332;2024-03-23T08:58:36;94500.03;;;10.65;92.51
13209;BME280;6669;42.678;23.332;2024-03-23T09:01:06;94498.63;;;10.77;90.58
13209;BME280;6669;42.678;23.332;2024-03-23T09:03:32;94495.97;;;10.86;87.80
13209;BME280;6669;42.678;23.332;2024-03-23T09:05:59;94486.53;;;10.85;88.22
13209;BME280;6669;42.678;23.332;2024-03-23T09:08:26;94492.81;;;10.90;84.87
13209;BME280;6669;42.678;23.332;2024-03-23T09:10:53;94485.84;;;11.06;86.78
13209;BME280;6669;42.678;23.332;2024-03-23T09:13:19;94480.75;;;11.12;85.01
13209;BME280;6669;42.678;23.332;2024-03-23T09:15:48;94472.56;;;11.16;83.97
13209;BME280;6669;42.678;23.332;2024-03-23T09:18:16;94469.97;;;11.45;85.60
13209;BME280;6669;42.678;23.332;2024-03-23T09:20:44;94467.78;;;11.64;82.91
13209;BME280;6669;42.678;23.332;2024-03-23T09:23:10;94460.25;;;11.69;82.22
13209;BME280;6669;42.678;23.332;2024-03-23T09:25:37;94455.53;;;11.80;81.38
13209;BME280;6669;42.678;23.332;2024-03-23T09:28:05;94451.84;;;11.89;81.08
13209;BME280;6669;42.678;23.332;2024-03-23T09:30:33;94450.97;;;12.18;81.52
13209;BME280;6669;42.678;23.332;2024-03-23T09:33:00;94439.63;;;12.26;79.63
13209;BME280;6669;42.678;23.332;2024-03-23T09:35:28;94445.53;;;12.35;80.14
13209;BME280;6669;42.678;23.332;2024-03-23T09:37:54;94444.31;;;12.59;77.88
13209;BME280;6669;42.678;23.332;2024-03-23T09:40:21;94440.28;;;12.56;75.83
13209;BME280;6669;42.678;23.332;2024-03-23T09:42:50;94435.28;;;12.33;76.35
13209;BME280;6669;42.678;23.332;2024-03-23T09:45:20;94427.13;;;12.43;76.41
13209;BME280;6669;42.678;23.332;2024-03-23T09:47:47;94432.38;;;12.50;76.27
13209;BME280;6669;42.678;23.332;2024-03-23T09:50:18;94418.94;;;12.46;74.88
13209;BME280;6669;42.678;23.332;2024-03-23T09:52:46;94416.66;;;12.65;76.94
13209;BME280;6669;42.678;23.332;2024-03-23T09:55:13;94410.00;;;12.90;75.29
13209;BME280;6669;42.678;23.332;2024-03-23T09:57:39;94410.59;;;12.86;72.07
13209;BME280;6669;42.678;23.332;2024-03-23T10:00:07;94412.44;;;12.92;72.40
13209;BME280;6669;42.678;23.332;2024-03-23T10:02:34;94404.69;;;13.05;72.06
13209;BME280;6669;42.678;23.332;2024-03-23T10:05:01;94401.78;;;13.29;70.58
13209;BME280;6669;42.678;23.332;2024-03-23T10:07:29;94401.75;;;13.64;72.54
13209;BME280;6669;42.678;23.332;2024-03-23T10:09:56;94395.59;;;13.92;67.00
13209;BME280;6669;42.678;23.332;2024-03-23T10:12:23;94380.34;;;14.29;66.22
13209;BME280;6669;42.678;23.332;2024-03-23T10:14:51;94375.31;;;14.54;62.85
13209;BME280;6669;42.678;23.332;2024-03-23T10:17:18;94379.13;;;14.98;60.73
13209;BME280;6669;42.678;23.332;2024-03-23T10:19:46;94375.66;;;15.63;60.25
13209;BME280;6669;42.678;23.332;2024-03-23T10:22:17;94368.19;;;15.67;58.11
13209;BME280;6669;42.678;23.332;2024-03-23T10:24:49;94367.06;;;16.45;57.40
13209;BME280;6669;42.678;23.332;2024-03-23T10:27:17;94370.94;;;17.12;55.66
13209;BME280;6669;42.678;23.332;2024-03-23T10:29:44;94362.47;;;16.66;54.33
13209;BME280;6669;42.678;23.332;2024-03-23T10:32:12;94356.16;;;17.67;53.79
13209;BME280;6669;42.678;23.332;2024-03-23T10:34:39;94341.91;;;18.05;52.88
13209;BME280;6669;42.678;23.332;2024-03-23T10:37:06;94345.16;;;18.66;52.70
13209;BME280;6669;42.678;23.332;2024-03-23T10:39:35;94338.50;;;18.28;50.88
13209;BME280;6669;42.678;23.332;2024-03-23T10:42:04;94339.38;;;18.10;50.36
13209;BME280;6669;42.678;23.332;2024-03-23T10:44:32;94327.19;;;18.63;50.50
13209;BME280;6669;42.678;23.332;2024-03-23T10:46:58;94316.53;;;19.46;51.06
13209;BME280;6669;42.678;23.332;2024-03-23T10:49:28;94316.81;;;19.62;49.00
13209;BME280;6669;42.678;23.332;2024-03-23T10:51:57;94307.50;;;20.00;49.05
13209;BME280;6669;42.678;23.332;2024-03-23T10:54:25;94304.66;;;19.60;48.94
13209;BME280;6669;42.678;23.332;2024-03-23T10:56:55;94295.16;;;19.59;48.37
13209;BME280;6669;42.678;23.332;2024-03-23T10:59:25;94289.50;;;20.14;48.58
13209;BME280;6669;42.678;23.332;2024-03-23T11:01:55;94277.56;;;20.45;47.17
13209;BME280;6669;42.678;23.332;2024-03-23T11:04:33;94277.81;;;20.09;46.57
13209;BME280;6669;42.678;23.332;2024-03-23T11:06:59;94276.41;;;20.19;46.95
13209;BME280;6669;42.678;23.332;2024-03-23T11:09:40;94268.63;;;20.85;46.07
13209;BME280;6669;42.678;23.332;2024-03-23T11:12:27;94257.50;;;20.44;45.63
13209;BME280;6669;42.678;23.332;2024-03-23T11:15:01;94258.25;;;20.62;46.12
13209;BME280;6669;42.678;23.332;2024-03-23T11:17:28;94252.72;;;20.80;46.22
13209;BME280;6669;42.678;23.332;2024-03-23T11:19:57;94240.75;;;21.17;45.15
13209;BME280;6669;42.678;23.332;2024-03-23T11:22:40;94238.28;;;21.60;45.57
13209;BME280;6669;42.678;23.332;2024-03-23T11:25:15;94232.06;;;21.76;45.27
13209;BME280;6669;42.678;23.332;2024-03-23T11:27:41;94239.19;;;21.48;44.46
13209;BME280;6669;42.678;23.332;2024-03-23T11:30:17;94237.34;;;21.21;44.49
13209;BME280;6669;42.678;23.332;2024-03-23T11:32:45;94228.75;;;21.09;44.98
13209;BME280;6669;42.678;23.332;2024-03-23T11:35:27;94229.19;;;21.01;44.91
13209;BME280;6669;42.678;23.332;2024-03-23T11:38:07;94218.00;;;21.43;44.68
13209;BME280;6669;42.678;23.332;2024-03-23T11:40:36;94211.09;;;21.37;44.43
13209;BME280;6669;42.678;23.332;2024-03-23T11:43:04;94204.84;;;21.76;44.64
13209;BME280;6669;42.678;23.332;2024-03-23T11:45:36;94200.19;;;21.33;43.94
13209;BME280;6669;42.678;23.332;2024-03-23T11:48:05;94196.13;;;20.98;44.57
13209;BME280;6669;42.678;23.332;2024-03-23T11:50:33;94192.09;;;20.51;45.35
13209;BME280;6669;42.678;23.332;2024-03-23T11:53:16;94186.22;;;20.88;44.47
13209;BME280;6669;42.678;23.332;2024-03-23T11:55:48;94183.47;;;21.00;44.85
13209;BME280;6669;42.678;23.332;2024-03-23T11:58:15;94178.31;;;20.44;45.05
13209;BME280;6669;42.678;23.332;2024-03-23T12:00:49;94174.66;;;20.28;45.75
13209;BME280;6669;42.678;23.332;2024-03-23T12:03:16;94162.59;;;20.99;44.48
13209;BME280;6669;42.678;23.332;2024-03-23T12:05:48;94165.91;;;21.16;44.53
13209;BME280;6669;42.678;23.332;2024-03-23T12:08:21;94149.66;;;20.75;44.61
13209;BME280;6669;42.678;23.332;2024-03-23T12:10:50;94150.16;;;20.99;44.82
13209;BME280;6669;42.678;23.332;2024-03-23T12:13:20;94146.56;;;21.38;44.19
13209;BME280;6669;42.678;23.332;2024-03-23T12:15:51;94145.25;;;21.08;43.44
13209;BME280;6669;42.678;23.332;2024-03-23T12:18:17;94138.00;;;20.54;43.88
13209;BME280;6669;42.678;23.332;2024-03-23T12:20:50;94133.06;;;21.67;43.24
13209;BME280;6669;42.678;23.332;2024-03-23T12:23:16;94129.34;;;21.63;42.90
13209;BME280;6669;42.678;23.332;2024-03-23T12:25:43;94122.56;;;21.77;42.61
13209;BME280;6669;42.678;23.332;2024-03-23T12:28:10;94122.28;;;21.74;42.69
13209;BME280;6669;42.678;23.332;2024-03-23T12:30:39;94116.84;;;21.91;42.34
13209;BME280;6669;42.678;23.332;2024-03-23T12:33:07;94115.53;;;21.55;42.52
13209;BME280;6669;42.678;23.332;2024-03-23T12:35:34;94101.81;;;21.59;42.87
13209;BME280;6669;42.678;23.332;2024-03-23T12:38:00;94103.38;;;21.97;42.13
13209;BME280;6669;42.678;23.332;2024-03-23T12:40:28;94086.22;;;21.62;42.46
13209;BME280;6669;42.678;23.332;2024-03-23T12:42:54;94097.59;;;22.59;41.70
13209;BME280;6669;42.678;23.332;2024-03-23T12:45:23;94091.88;;;23.03;41.73
13209;BME280;6669;42.678;23.332;2024-03-23T12:47:49;94095.56;;;22.86;40.76
13209;BME280;6669;42.678;23.332;2024-03-23T12:50:20;94083.38;;;22.96;40.75
13209;BME280;6669;42.678;23.332;2024-03-23T12:52:47;94089.53;;;23.48;40.28
13209;BME280;6669;42.678;23.332;2024-03-23T12:55:14;94087.13;;;23.77;39.26
13209;BME280;6669;42.678;23.332;2024-03-23T12:57:40;94080.53;;;23.44;36.52
13209;BME280;6669;42.678;23.332;2024-03-23T13:00:08;94073.59;;;23.01;36.68
13209;BME280;6669;42.678;23.332;2024-03-23T13:02:37;94056.38;;;23.40;36.62
13209;BME280;6669;42.678;23.332;2024-03-23T13:05:05;94062.16;;;23.89;36.00
13209;BME280;6669;42.678;23.332;2024-03-23T13:07:35;94060.78;;;24.22;36.13
13209;BME280;6669;42.678;23.332;2024-03-23T13:10:05;94057.22;;;24.47;35.97
13209;BME280;6669;42.678;23.332;2024-03-23T13:12:31;94057.41;;;24.56;35.79
13209;BME280;6669;42.678;23.332;2024-03-23T13:14:59;94060.09;;;23.55;34.92
13209;BME280;6669;42.678;23.332;2024-03-23T13:17:26;94041.97;;;22.59;35.46
13209;BME280;6669;42.678;23.332;2024-03-23T13:19:53;94036.63;;;22.38;35.79
13209;BME280;6669;42.678;23.332;2024-03-23T13:22:20;94038.59;;;22.10;35.72
13209;BME280;6669;42.678;23.332;2024-03-23T13:24:48;94040.91;;;22.49;36.59
13209;BME280;6669;42.678;23.332;2024-03-23T13:27:14;94027.13;;;22.63;36.18
13209;BME280;6669;42.678;23.332;2024-03-23T13:29:42;94037.19;;;21.87;35.35
13209;BME280;6669;42.678;23.332;2024-03-23T13:32:08;94043.22;;;21.39;35.57
13209;BME280;6669;42.678;23.332;2024-03-23T13:34:35;94027.88;;;21.79;35.49
13209;BME280;6669;42.678;23.332;2024-03-23T13:37:01;94031.63;;;22.52;35.24
13209;BME280;6669;42.678;23.332;2024-03-23T13:39:29;94021.13;;;23.24;34.95
13209;BME280;6669;42.678;23.332;2024-03-23T13:41:58;94027.19;;;22.83;35.04
13209;BME280;6669;42.678;23.332;2024-03-23T13:44:25;94016.53;;;22.63;35.16
13209;BME280;6669;42.678;23.332;2024-03-23T13:46:51;94011.78;;;22.60;35.50
13209;BME280;6669;42.678;23.332;2024-03-23T13:49:25;93998.81;;;22.74;35.40
13209;BME280;6669;42.678;23.332;2024-03-23T13:51:53;93994.84;;;22.76;35.19
13209;BME280;6669;42.678;23.332;2024-03-23T13:54:20;94003.97;;;22.27;35.56
13209;BME280;6669;42.678;23.332;2024-03-23T13:56:48;94003.81;;;22.39;36.16